Terminal Aerodrome Forecast
Issued by NWS Louisville, KY

Home | Current Version | Previous Version | Text Only | Print | Product List | Glossary On
Versions: 1 2 3 4 5 6 7 8 9 10 11
000
FTUS43 KLMK 240500
TAFSDF
TAF
KSDF 240538Z 2406/2512 14006KT P6SM VCSH SCT015 BKN070
     FM240900 14007KT 5SM -SHRA BR BKN015
      TEMPO 2411/2414 3SM -SHRA BR BKN009
     FM241500 19011G16KT 5SM -SHRA BR OVC010
     FM241800 23015G22KT P6SM -SHRA BKN015
     FM250000 24012G17KT P6SM BKN020=

USA.gov is the U.S. government's official web portal to all federal, state and local government web resources and services.